sensor_id;sensor_type;location;lat;lon;timestamp;pressure;altitude;pressure_sealevel;temperature;humidity
25722;BME280;13578;53.450;15.496;2023-02-28T00:01:07;101265.00;;;-4.04;100.00
25722;BME280;13578;53.450;15.496;2023-02-28T00:04:08;101273.03;;;-3.97;100.00
25722;BME280;13578;53.450;15.496;2023-02-28T00:07:09;101277.50;;;-3.96;100.00
25722;BME280;13578;53.450;15.496;2023-02-28T00:10:13;101269.44;;;-3.98;100.00
25722;BME280;13578;53.450;15.496;2023-02-28T00:13:14;101274.81;;;-3.98;100.00
25722;BME280;13578;53.450;15.496;2023-02-28T00:16:20;101287.41;;;-4.09;100.00
25722;BME280;13578;53.450;15.496;2023-02-28T00:19:22;101274.91;;;-4.12;100.00
25722;BME280;13578;53.450;15.496;2023-02-28T00:22:22;101278.47;;;-4.11;100.00
25722;BME280;13578;53.450;15.496;2023-02-28T00:25:24;101273.09;;;-4.08;100.00
25722;BME280;13578;53.450;15.496;2023-02-28T00:28:25;101275.75;;;-4.07;100.00
25722;BME280;13578;53.450;15.496;2023-02-28T00:31:26;101274.84;;;-4.03;100.00
25722;BME280;13578;53.450;15.496;2023-02-28T00:34:27;101278.47;;;-4.11;100.00
25722;BME280;13578;53.450;15.496;2023-02-28T00:37:27;101275.78;;;-4.11;100.00
25722;BME280;13578;53.450;15.496;2023-02-28T00:40:28;101279.34;;;-4.08;100.00
25722;BME280;13578;53.450;15.496;2023-02-28T00:43:29;101281.16;;;-4.13;100.00
25722;BME280;13578;53.450;15.496;2023-02-28T00:46:31;101278.53;;;-4.22;100.00
25722;BME280;13578;53.450;15.496;2023-02-28T00:49:32;101279.44;;;-4.20;100.00
25722;BME280;13578;53.450;15.496;2023-02-28T00:52:33;101291.94;;;-4.21;100.00
25722;BME280;13578;53.450;15.496;2023-02-28T00:55:33;101287.50;;;-4.28;100.00
25722;BME280;13578;53.450;15.496;2023-02-28T00:58:34;101285.75;;;-4.34;100.00
25722;BME280;13578;53.450;15.496;2023-02-28T01:01:35;101278.63;;;-4.41;100.00
25722;BME280;13578;53.450;15.496;2023-02-28T01:04:35;101290.22;;;-4.36;100.00
25722;BME280;13578;53.450;15.496;2023-02-28T01:07:36;101284.88;;;-4.39;100.00
25722;BME280;13578;53.450;15.496;2023-02-28T01:10:37;101293.81;;;-4.37;100.00
25722;BME280;13578;53.450;15.496;2023-02-28T01:13:40;101284.00;;;-4.42;100.00
25722;BME280;13578;53.450;15.496;2023-02-28T01:16:41;101280.44;;;-4.46;100.00
25722;BME280;13578;53.450;15.496;2023-02-28T01:19:41;101276.88;;;-4.54;100.00
25722;BME280;13578;53.450;15.496;2023-02-28T01:22:42;101283.16;;;-4.55;100.00
25722;BME280;13578;53.450;15.496;2023-02-28T01:25:43;101284.97;;;-4.59;100.00
25722;BME280;13578;53.450;15.496;2023-02-28T01:28:43;101282.28;;;-4.62;100.00
25722;BME280;13578;53.450;15.496;2023-02-28T01:31:44;101275.13;;;-4.62;100.00
25722;BME280;13578;53.450;15.496;2023-02-28T01:34:45;101285.84;;;-4.55;100.00
25722;BME280;13578;53.450;15.496;2023-02-28T01:37:46;101284.09;;;-4.61;100.00
25722;BME280;13578;53.450;15.496;2023-02-28T01:40:46;101279.56;;;-4.54;100.00
25722;BME280;13578;53.450;15.496;2023-02-28T01:46:48;101271.56;;;-4.65;100.00
25722;BME280;13578;53.450;15.496;2023-02-28T01:49:49;101273.38;;;-4.63;100.00
25722;BME280;13578;53.450;15.496;2023-02-28T01:52:55;101273.38;;;-4.66;100.00
25722;BME280;13578;53.450;15.496;2023-02-28T01:55:57;101274.28;;;-4.64;100.00
25722;BME280;13578;53.450;15.496;2023-02-28T01:58:58;101283.19;;;-4.65;100.00
25722;BME280;13578;53.450;15.496;2023-02-28T02:02:00;101276.06;;;-4.75;100.00
25722;BME280;13578;53.450;15.496;2023-02-28T02:05:05;101288.56;;;-4.72;100.00
25722;BME280;13578;53.450;15.496;2023-02-28T02:08:19;101272.50;;;-4.71;100.00
25722;BME280;13578;53.450;15.496;2023-02-28T02:11:23;101293.00;;;-4.60;100.00
25722;BME280;13578;53.450;15.496;2023-02-28T02:14:33;101289.41;;;-4.59;100.00
25722;BME280;13578;53.450;15.496;2023-02-28T02:17:44;101292.09;;;-4.59;100.00
25722;BME280;13578;53.450;15.496;2023-02-28T02:37:38;101298.41;;;-4.81;100.00
25722;BME280;13578;53.450;15.496;2023-02-28T02:40:56;101283.28;;;-4.86;100.00
25722;BME280;13578;53.450;15.496;2023-02-28T02:47:30;101277.03;;;-4.99;100.00
25722;BME280;13578;53.450;15.496;2023-02-28T02:50:41;101281.50;;;-4.97;100.00
25722;BME280;13578;53.450;15.496;2023-02-28T02:53:57;101276.16;;;-5.01;100.00
25722;BME280;13578;53.450;15.496;2023-02-28T02:57:04;101271.69;;;-5.01;100.00
25722;BME280;13578;53.450;15.496;2023-02-28T03:00:07;101281.53;;;-5.00;100.00
25722;BME280;13578;53.450;15.496;2023-02-28T03:03:10;101274.38;;;-5.01;100.00
25722;BME280;13578;53.450;15.496;2023-02-28T03:06:12;101275.25;;;-4.96;100.00
25722;BME280;13578;53.450;15.496;2023-02-28T03:09:12;101278.81;;;-4.93;100.00
25722;BME280;13578;53.450;15.496;2023-02-28T03:12:13;101286.88;;;-5.03;100.00
25722;BME280;13578;53.450;15.496;2023-02-28T03:15:22;101277.97;;;-5.08;100.00
25722;BME280;13578;53.450;15.496;2023-02-28T03:18:52;101286.88;;;-5.03;100.00
25722;BME280;13578;53.450;15.496;2023-02-28T03:25:29;101291.34;;;-5.13;100.00
25722;BME280;13578;53.450;15.496;2023-02-28T03:28:37;101289.56;;;-5.09;100.00
25722;BME280;13578;53.450;15.496;2023-02-28T03:31:54;101279.75;;;-5.07;100.00
25722;BME280;13578;53.450;15.496;2023-02-28T03:38:16;101295.81;;;-5.07;100.00
25722;BME280;13578;53.450;15.496;2023-02-28T03:41:22;101285.13;;;-5.16;100.00
25722;BME280;13578;53.450;15.496;2023-02-28T03:44:54;101289.56;;;-5.14;100.00
25722;BME280;13578;53.450;15.496;2023-02-28T03:48:08;101283.34;;;-5.25;100.00
25722;BME280;13578;53.450;15.496;2023-02-28T03:51:15;101285.13;;;-5.22;100.00
25722;BME280;13578;53.450;15.496;2023-02-28T03:54:26;101284.22;;;-5.17;100.00
25722;BME280;13578;53.450;15.496;2023-02-28T04:00:45;101295.84;;;-5.32;100.00
25722;BME280;13578;53.450;15.496;2023-02-28T04:03:46;101298.50;;;-5.27;100.00
25722;BME280;13578;53.450;15.496;2023-02-28T04:06:50;101290.50;;;-5.33;100.00
25722;BME280;13578;53.450;15.496;2023-02-28T04:09:51;101297.63;;;-5.37;100.00
25722;BME280;13578;53.450;15.496;2023-02-28T04:12:52;101288.69;;;-5.44;100.00
25722;BME280;13578;53.450;15.496;2023-02-28T04:15:53;101296.72;;;-5.34;100.00
25722;BME280;13578;53.450;15.496;2023-02-28T04:18:53;101298.50;;;-5.32;100.00
25722;BME280;13578;53.450;15.496;2023-02-28T04:21:54;101299.41;;;-5.42;100.00
25722;BME280;13578;53.450;15.496;2023-02-28T04:24:55;101293.16;;;-5.46;100.00
25722;BME280;13578;53.450;15.496;2023-02-28T04:27:56;101299.41;;;-5.42;100.00
25722;BME280;13578;53.450;15.496;2023-02-28T04:30:58;101299.38;;;-5.47;100.00
25722;BME280;13578;53.450;15.496;2023-02-28T04:34:00;101302.97;;;-5.49;100.00
25722;BME280;13578;53.450;15.496;2023-02-28T04:37:00;101301.19;;;-5.39;100.00
25722;BME280;13578;53.450;15.496;2023-02-28T04:40:01;101297.59;;;-5.54;100.00
25722;BME280;13578;53.450;15.496;2023-02-28T04:43:03;101303.00;;;-5.48;100.00
25722;BME280;13578;53.450;15.496;2023-02-28T04:46:04;101302.97;;;-5.46;100.00
25722;BME280;13578;53.450;15.496;2023-02-28T04:49:05;101311.91;;;-5.38;100.00
25722;BME280;13578;53.450;15.496;2023-02-28T04:52:05;101300.31;;;-5.42;100.00
25722;BME280;13578;53.450;15.496;2023-02-28T04:55:07;101307.44;;;-5.39;100.00
25722;BME280;13578;53.450;15.496;2023-02-28T04:58:08;101301.19;;;-5.38;100.00
25722;BME280;13578;53.450;15.496;2023-02-28T05:01:25;101303.84;;;-5.39;100.00
25722;BME280;13578;53.450;15.496;2023-02-28T05:04:26;101313.69;;;-5.34;100.00
25722;BME280;13578;53.450;15.496;2023-02-28T05:07:26;101301.19;;;-5.47;100.00
25722;BME280;13578;53.450;15.496;2023-02-28T05:10:27;101296.75;;;-5.50;100.00
25722;BME280;13578;53.450;15.496;2023-02-28T05:13:28;101308.34;;;-5.52;100.00
25722;BME280;13578;53.450;15.496;2023-02-28T05:16:29;101295.84;;;-5.69;100.00
25722;BME280;13578;53.450;15.496;2023-02-28T05:19:29;101295.84;;;-5.64;100.00
25722;BME280;13578;53.450;15.496;2023-02-28T05:22:30;101302.09;;;-5.73;100.00
25722;BME280;13578;53.450;15.496;2023-02-28T05:25:31;101301.19;;;-5.75;100.00
25722;BME280;13578;53.450;15.496;2023-02-28T05:28:31;101302.06;;;-5.84;100.00
25722;BME280;13578;53.450;15.496;2023-02-28T05:31:32;101304.75;;;-5.82;100.00
25722;BME280;13578;53.450;15.496;2023-02-28T05:34:33;101311.88;;;-5.87;100.00
25722;BME280;13578;53.450;15.496;2023-02-28T05:37:33;101315.44;;;-5.84;100.00
25722;BME280;13578;53.450;15.496;2023-02-28T05:40:34;101317.22;;;-5.84;100.00
25722;BME280;13578;53.450;15.496;2023-02-28T05:43:36;101318.09;;;-5.85;100.00
25722;BME280;13578;53.450;15.496;2023-02-28T05:46:37;101317.19;;;-5.83;100.00
25722;BME280;13578;53.450;15.496;2023-02-28T05:49:38;101309.19;;;-5.84;100.00
25722;BME280;13578;53.450;15.496;2023-02-28T05:52:39;101313.66;;;-5.76;100.00
25722;BME280;13578;53.450;15.496;2023-02-28T05:55:39;101328.81;;;-5.70;100.00
25722;BME280;13578;53.450;15.496;2023-02-28T05:58:41;101322.56;;;-5.78;100.00
25722;BME280;13578;53.450;15.496;2023-02-28T06:01:44;101336.84;;;-5.82;100.00
25722;BME280;13578;53.450;15.496;2023-02-28T06:04:51;101335.97;;;-5.70;100.00
25722;BME280;13578;53.450;15.496;2023-02-28T06:07:52;101337.72;;;-5.82;100.00
25722;BME280;13578;53.450;15.496;2023-02-28T06:10:53;101336.84;;;-5.82;100.00
25722;BME280;13578;53.450;15.496;2023-02-28T06:13:58;101354.69;;;-5.74;100.00
25722;BME280;13578;53.450;15.496;2023-02-28T06:17:00;101343.09;;;-5.72;100.00
25722;BME280;13578;53.450;15.496;2023-02-28T06:20:01;101340.41;;;-5.74;100.00
25722;BME280;13578;53.450;15.496;2023-02-28T06:23:02;101355.59;;;-5.61;100.00
25722;BME280;13578;53.450;15.496;2023-02-28T06:26:02;101350.25;;;-5.53;100.00
25722;BME280;13578;53.450;15.496;2023-02-28T06:29:03;101354.72;;;-5.47;100.00
25722;BME280;13578;53.450;15.496;2023-02-28T06:32:04;101356.50;;;-5.43;100.00
25722;BME280;13578;53.450;15.496;2023-02-28T06:35:04;101357.41;;;-5.36;100.00
25722;BME280;13578;53.450;15.496;2023-02-28T06:38:05;101366.34;;;-5.25;100.00
25722;BME280;13578;53.450;15.496;2023-02-28T06:41:06;101360.97;;;-5.17;100.00
25722;BME280;13578;53.450;15.496;2023-02-28T06:44:12;101352.94;;;-5.11;100.00
25722;BME280;13578;53.450;15.496;2023-02-28T06:47:13;101356.50;;;-5.03;100.00
25722;BME280;13578;53.450;15.496;2023-02-28T06:50:13;101361.84;;;-4.93;100.00
25722;BME280;13578;53.450;15.496;2023-02-28T06:53:14;101347.53;;;-4.88;100.00
25722;BME280;13578;53.450;15.496;2023-02-28T06:56:15;101362.72;;;-4.73;100.00
25722;BME280;13578;53.450;15.496;2023-02-28T06:59:16;101359.13;;;-4.66;100.00
25722;BME280;13578;53.450;15.496;2023-02-28T07:02:17;101359.97;;;-4.51;100.00
25722;BME280;13578;53.450;15.496;2023-02-28T07:05:17;101359.94;;;-4.45;100.00
25722;BME280;13578;53.450;15.496;2023-02-28T07:08:18;101360.81;;;-4.34;100.00
25722;BME280;13578;53.450;15.496;2023-02-28T07:11:24;101361.66;;;-4.18;100.00
25722;BME280;13578;53.450;15.496;2023-02-28T07:14:25;101358.91;;;-4.07;100.00
25722;BME280;13578;53.450;15.496;2023-02-28T07:17:26;101365.09;;;-3.91;100.00
25722;BME280;13578;53.450;15.496;2023-02-28T07:20:27;101357.88;;;-3.79;100.00
25722;BME280;13578;53.450;15.496;2023-02-28T07:23:27;101364.06;;;-3.70;100.00
25722;BME280;13578;53.450;15.496;2023-02-28T07:26:28;101359.56;;;-3.61;100.00
25722;BME280;13578;53.450;15.496;2023-02-28T07:29:28;101376.41;;;-3.41;100.00
25722;BME280;13578;53.450;15.496;2023-02-28T07:32:29;101365.56;;;-3.28;100.00
25722;BME280;13578;53.450;15.496;2023-02-28T07:35:30;101376.16;;;-3.11;100.00
25722;BME280;13578;53.450;15.496;2023-02-28T07:38:36;101365.31;;;-2.94;100.00
25722;BME280;13578;53.450;15.496;2023-02-28T07:41:37;101367.88;;;-2.82;100.00
25722;BME280;13578;53.450;15.496;2023-02-28T07:44:43;101379.34;;;-2.63;100.00
25722;BME280;13578;53.450;15.496;2023-02-28T07:47:44;101394.41;;;-2.48;100.00
25722;BME280;13578;53.450;15.496;2023-02-28T07:50:44;101381.75;;;-2.40;100.00
25722;BME280;13578;53.450;15.496;2023-02-28T07:53:48;101385.28;;;-2.33;100.00
25722;BME280;13578;53.450;15.496;2023-02-28T07:56:49;101382.41;;;-2.19;100.00
25722;BME280;13578;53.450;15.496;2023-02-28T07:59:49;101388.53;;;-2.03;100.00
25722;BME280;13578;53.450;15.496;2023-02-28T08:02:50;101391.00;;;-1.86;100.00
25722;BME280;13578;53.450;15.496;2023-02-28T08:05:51;101398.88;;;-1.73;100.00
25722;BME280;13578;53.450;15.496;2023-02-28T08:08:53;101401.44;;;-1.63;100.00
25722;BME280;13578;53.450;15.496;2023-02-28T08:11:54;101384.25;;;-1.54;100.00
25722;BME280;13578;53.450;15.496;2023-02-28T08:14:54;101377.78;;;-1.42;100.00
25722;BME280;13578;53.450;15.496;2023-02-28T08:17:55;101386.53;;;-1.28;100.00
25722;BME280;13578;53.450;15.496;2023-02-28T08:20:58;101380.94;;;-1.14;100.00
25722;BME280;13578;53.450;15.496;2023-02-28T08:23:59;101382.59;;;-1.03;100.00
25722;BME280;13578;53.450;15.496;2023-02-28T08:26:59;101380.50;;;-0.87;100.00
25722;BME280;13578;53.450;15.496;2023-02-28T08:30:00;101377.66;;;-0.80;100.00
25722;BME280;13578;53.450;15.496;2023-02-28T08:33:01;101373.00;;;-0.70;100.00
25722;BME280;13578;53.450;15.496;2023-02-28T08:36:02;101365.66;;;-0.60;100.00
25722;BME280;13578;53.450;15.496;2023-02-28T08:39:03;101363.53;;;-0.44;100.00
25722;BME280;13578;53.450;15.496;2023-02-28T08:42:04;101369.59;;;-0.33;100.00
25722;BME280;13578;53.450;15.496;2023-02-28T08:45:05;101365.84;;;-0.24;100.00
25722;BME280;13578;53.450;15.496;2023-02-28T08:48:06;101377.38;;;-0.17;100.00
25722;BME280;13578;53.450;15.496;2023-02-28T08:51:09;101385.25;;;-0.06;100.00
25722;BME280;13578;53.450;15.496;2023-02-28T08:54:10;101378.81;;;0.03;100.00
25722;BME280;13578;53.450;15.496;2023-02-28T08:57:16;101394.84;;;0.10;100.00
25722;BME280;13578;53.450;15.496;2023-02-28T09:00:16;101394.69;;;0.18;100.00
25722;BME280;13578;53.450;15.496;2023-02-28T09:03:17;101398.91;;;0.30;100.00
25722;BME280;13578;53.450;15.496;2023-02-28T09:06:20;101387.19;;;0.31;100.00
25722;BME280;13578;53.450;15.496;2023-02-28T09:09:20;101370.88;;;0.36;100.00
25722;BME280;13578;53.450;15.496;2023-02-28T09:12:23;101386.69;;;0.53;100.00
25722;BME280;13578;53.450;15.496;2023-02-28T09:15:24;101399.03;;;0.65;100.00
25722;BME280;13578;53.450;15.496;2023-02-28T09:18:25;101382.34;;;0.85;100.00
25722;BME280;13578;53.450;15.496;2023-02-28T09:21:26;101379.59;;;0.88;100.00
25722;BME280;13578;53.450;15.496;2023-02-28T09:24:27;101371.25;;;0.95;100.00
25722;BME280;13578;53.450;15.496;2023-02-28T09:27:28;101373.66;;;1.08;100.00
25722;BME280;13578;53.450;15.496;2023-02-28T09:30:29;101361.19;;;1.02;100.00
25722;BME280;13578;53.450;15.496;2023-02-28T09:33:29;101352.06;;;1.06;100.00
25722;BME280;13578;53.450;15.496;2023-02-28T09:36:30;101344.03;;;1.03;100.00
25722;BME280;13578;53.450;15.496;2023-02-28T09:39:31;101338.31;;;1.16;100.00
25722;BME280;13578;53.450;15.496;2023-02-28T09:42:33;101340.09;;;1.17;100.00
25722;BME280;13578;53.450;15.496;2023-02-28T09:45:48;101349.94;;;1.18;100.00
25722;BME280;13578;53.450;15.496;2023-02-28T09:48:50;101357.53;;;1.39;100.00
25722;BME280;13578;53.450;15.496;2023-02-28T09:52:00;101342.72;;;1.53;100.00
25722;BME280;13578;53.450;15.496;2023-02-28T09:55:26;101349.34;;;1.41;100.00
25722;BME280;13578;53.450;15.496;2023-02-28T10:01:59;101369.50;;;1.62;100.00
25722;BME280;13578;53.450;15.496;2023-02-28T10:05:09;101355.91;;;1.65;100.00
25722;BME280;13578;53.450;15.496;2023-02-28T10:08:15;101360.38;;;1.66;100.00
25722;BME280;13578;53.450;15.496;2023-02-28T10:11:18;101361.75;;;1.81;100.00
25722;BME280;13578;53.450;15.496;2023-02-28T10:14:29;101356.72;;;1.69;100.00
25722;BME280;13578;53.450;15.496;2023-02-28T10:17:38;101349.25;;;1.77;100.00
25722;BME280;13578;53.450;15.496;2023-02-28T10:20:40;101358.13;;;1.82;100.00
25722;BME280;13578;53.450;15.496;2023-02-28T10:23:43;101352.72;;;1.82;100.00
25722;BME280;13578;53.450;15.496;2023-02-28T10:26:47;101365.84;;;1.96;100.00
25722;BME280;13578;53.450;15.496;2023-02-28T10:29:55;101384.50;;;2.07;100.00
25722;BME280;13578;53.450;15.496;2023-02-28T10:32:56;101362.66;;;2.13;100.00
25722;BME280;13578;53.450;15.496;2023-02-28T10:35:58;101362.78;;;2.09;100.00
25722;BME280;13578;53.450;15.496;2023-02-28T10:38:59;101387.94;;;2.12;100.00
25722;BME280;13578;53.450;15.496;2023-02-28T10:42:00;101369.78;;;2.16;100.00
25722;BME280;13578;53.450;15.496;2023-02-28T10:45:13;101374.56;;;2.37;100.00
25722;BME280;13578;53.450;15.496;2023-02-28T10:51:16;101355.31;;;2.47;100.00
25722;BME280;13578;53.450;15.496;2023-02-28T10:54:22;101354.44;;;2.45;100.00
25722;BME280;13578;53.450;15.496;2023-02-28T10:57:24;101332.03;;;2.40;100.00
25722;BME280;13578;53.450;15.496;2023-02-28T11:00:32;101332.69;;;2.48;100.00
25722;BME280;13578;53.450;15.496;2023-02-28T11:03:35;101328.06;;;2.50;100.00
25722;BME280;13578;53.450;15.496;2023-02-28T11:06:35;101323.94;;;2.66;100.00
25722;BME280;13578;53.450;15.496;2023-02-28T11:09:39;101312.56;;;2.55;100.00
25722;BME280;13578;53.450;15.496;2023-02-28T11:12:40;101293.97;;;2.71;100.00
25722;BME280;13578;53.450;15.496;2023-02-28T11:15:53;101298.41;;;2.74;100.00
25722;BME280;13578;53.450;15.496;2023-02-28T11:18:55;101281.97;;;2.51;100.00
25722;BME280;13578;53.450;15.496;2023-02-28T11:22:01;101271.00;;;2.54;100.00
25722;BME280;13578;53.450;15.496;2023-02-28T11:25:08;101291.03;;;2.77;100.00
25722;BME280;13578;53.450;15.496;2023-02-28T11:28:31;101288.03;;;2.60;100.00
25722;BME280;13578;53.450;15.496;2023-02-28T11:31:32;101315.50;;;2.76;100.00
25722;BME280;13578;53.450;15.496;2023-02-28T11:34:33;101301.50;;;2.90;100.00
25722;BME280;13578;53.450;15.496;2023-02-28T11:37:33;101277.88;;;2.93;100.00
25722;BME280;13578;53.450;15.496;2023-02-28T11:44:10;101280.84;;;3.11;100.00
25722;BME280;13578;53.450;15.496;2023-02-28T11:47:33;101295.09;;;3.17;100.00
25722;BME280;13578;53.450;15.496;2023-02-28T11:54:29;101295.03;;;3.19;100.00
25722;BME280;13578;53.450;15.496;2023-02-28T12:01:07;101265.91;;;3.24;100.00
25722;BME280;13578;53.450;15.496;2023-02-28T12:04:17;101255.63;;;3.34;100.00
25722;BME280;13578;53.450;15.496;2023-02-28T12:11:17;101266.28;;;3.39;100.00
25722;BME280;13578;53.450;15.496;2023-02-28T12:21:44;101264.81;;;3.30;100.00
25722;BME280;13578;53.450;15.496;2023-02-28T12:24:59;101265.66;;;3.32;100.00
25722;BME280;13578;53.450;15.496;2023-02-28T12:28:04;101257.97;;;3.43;100.00
25722;BME280;13578;53.450;15.496;2023-02-28T12:31:10;101271.88;;;3.59;100.00
25722;BME280;13578;53.450;15.496;2023-02-28T12:34:18;101252.69;;;3.64;100.00
25722;BME280;13578;53.450;15.496;2023-02-28T12:37:52;101262.59;;;3.65;100.00
25722;BME280;13578;53.450;15.496;2023-02-28T12:44:34;101245.53;;;3.85;100.00
25722;BME280;13578;53.450;15.496;2023-02-28T12:47:38;101235.97;;;3.98;100.00
25722;BME280;13578;53.450;15.496;2023-02-28T12:50:41;101226.34;;;3.90;100.00
25722;BME280;13578;53.450;15.496;2023-02-28T12:57:09;101235.97;;;3.98;100.00
25722;BME280;13578;53.450;15.496;2023-02-28T13:00:19;101226.09;;;3.96;100.00
25722;BME280;13578;53.450;15.496;2023-02-28T13:09:57;101224.81;;;3.83;100.00
25722;BME280;13578;53.450;15.496;2023-02-28T13:13:02;101203.09;;;4.05;100.00
25722;BME280;13578;53.450;15.496;2023-02-28T13:16:10;101188.16;;;3.94;100.00
25722;BME280;13578;53.450;15.496;2023-02-28T13:19:11;101172.41;;;4.03;98.72
25722;BME280;13578;53.450;15.496;2023-02-28T13:22:20;101187.81;;;4.02;99.60
25722;BME280;13578;53.450;15.496;2023-02-28T13:38:16;101181.00;;;4.14;99.36
25722;BME280;13578;53.450;15.496;2023-02-28T13:41:46;101170.72;;;4.00;98.56
25722;BME280;13578;53.450;15.496;2023-02-28T13:48:19;101174.44;;;4.20;98.41
25722;BME280;13578;53.450;15.496;2023-02-28T13:51:49;101177.53;;;4.10;98.65
25722;BME280;13578;53.450;15.496;2023-02-28T13:55:13;101166.28;;;4.20;95.47
25722;BME280;13578;53.450;15.496;2023-02-28T14:02:18;101150.28;;;4.12;93.97
25722;BME280;13578;53.450;15.496;2023-02-28T14:05:24;101165.94;;;4.27;96.31
25722;BME280;13578;53.450;15.496;2023-02-28T14:08:27;101158.63;;;4.29;95.62
25722;BME280;13578;53.450;15.496;2023-02-28T14:11:36;101162.81;;;4.16;98.63
25722;BME280;13578;53.450;15.496;2023-02-28T14:17:38;101179.13;;;4.16;100.00
25722;BME280;13578;53.450;15.496;2023-02-28T14:20:40;101179.47;;;4.07;100.00
25722;BME280;13578;53.450;15.496;2023-02-28T14:31:01;101164.97;;;4.08;96.91
25722;BME280;13578;53.450;15.496;2023-02-28T14:34:20;101151.03;;;4.16;95.59
25722;BME280;13578;53.450;15.496;2023-02-28T14:37:30;101126.28;;;4.01;93.27
25722;BME280;13578;53.450;15.496;2023-02-28T14:40:34;101159.31;;;3.90;98.25
25722;BME280;13578;53.450;15.496;2023-02-28T14:43:35;101159.31;;;3.90;98.19
25722;BME280;13578;53.450;15.496;2023-02-28T14:46:38;101170.66;;;4.02;98.95
25722;BME280;13578;53.450;15.496;2023-02-28T14:49:44;101151.16;;;3.90;97.39
25722;BME280;13578;53.450;15.496;2023-02-28T14:52:47;101146.13;;;4.03;96.02
25722;BME280;13578;53.450;15.496;2023-02-28T14:55:49;101165.84;;;3.86;100.00
25722;BME280;13578;53.450;15.496;2023-02-28T14:58:55;101157.94;;;4.02;98.08
25722;BME280;13578;53.450;15.496;2023-02-28T15:02:21;101147.34;;;4.18;95.05
25722;BME280;13578;53.450;15.496;2023-02-28T15:05:29;101154.09;;;4.08;96.65
25722;BME280;13578;53.450;15.496;2023-02-28T15:08:31;101142.38;;;4.06;95.02
25722;BME280;13578;53.450;15.496;2023-02-28T15:11:37;101097.84;;;4.10;88.06
25722;BME280;13578;53.450;15.496;2023-02-28T15:14:42;101110.53;;;4.09;88.95
25722;BME280;13578;53.450;15.496;2023-02-28T15:17:46;101113.78;;;3.97;90.51
25722;BME280;13578;53.450;15.496;2023-02-28T15:20:47;101113.03;;;3.93;90.03
25722;BME280;13578;53.450;15.496;2023-02-28T15:24:02;101129.63;;;3.86;90.88
25722;BME280;13578;53.450;15.496;2023-02-28T15:27:07;101129.94;;;3.78;89.77
25722;BME280;13578;53.450;15.496;2023-02-28T15:30:17;101130.44;;;3.88;89.44
25722;BME280;13578;53.450;15.496;2023-02-28T15:33:23;101121.97;;;3.73;90.13
25722;BME280;13578;53.450;15.496;2023-02-28T15:36:28;101118.31;;;3.52;90.82
25722;BME280;13578;53.450;15.496;2023-02-28T15:39:29;101116.22;;;3.37;90.68
25722;BME280;13578;53.450;15.496;2023-02-28T15:42:30;101110.13;;;3.30;89.88
25722;BME280;13578;53.450;15.496;2023-02-28T15:45:37;101119.72;;;3.39;92.47
25722;BME280;13578;53.450;15.496;2023-02-28T15:48:55;101109.53;;;3.45;91.81
25722;BME280;13578;53.450;15.496;2023-02-28T15:52:00;101096.13;;;3.41;91.38
25722;BME280;13578;53.450;15.496;2023-02-28T15:55:19;101117.50;;;3.50;91.61
25722;BME280;13578;53.450;15.496;2023-02-28T15:58:21;101112.94;;;3.27;93.56
25722;BME280;13578;53.450;15.496;2023-02-28T16:01:27;101122.09;;;3.24;94.41
25722;BME280;13578;53.450;15.496;2023-02-28T16:04:30;101102.75;;;3.33;93.68
25722;BME280;13578;53.450;15.496;2023-02-28T16:07:32;101118.44;;;3.25;93.75
25722;BME280;13578;53.450;15.496;2023-02-28T16:10:33;101121.91;;;3.05;95.18
25722;BME280;13578;53.450;15.496;2023-02-28T16:13:34;101149.41;;;2.96;100.00
25722;BME280;13578;53.450;15.496;2023-02-28T16:16:42;101167.00;;;2.84;100.00
25722;BME280;13578;53.450;15.496;2023-02-28T16:19:43;101169.38;;;2.68;100.00
25722;BME280;13578;53.450;15.496;2023-02-28T16:22:44;101178.06;;;2.51;100.00
25722;BME280;13578;53.450;15.496;2023-02-28T16:25:45;101180.34;;;2.38;100.00
25722;BME280;13578;53.450;15.496;2023-02-28T16:28:46;101186.00;;;2.30;100.00
25722;BME280;13578;53.450;15.496;2023-02-28T16:31:47;101183.00;;;2.13;100.00
25722;BME280;13578;53.450;15.496;2023-02-28T16:34:48;101185.44;;;1.92;100.00
25722;BME280;13578;53.450;15.496;2023-02-28T16:37:50;101206.63;;;1.79;100.00
25722;BME280;13578;53.450;15.496;2023-02-28T16:40:53;101201.75;;;1.61;100.00
25722;BME280;13578;53.450;15.496;2023-02-28T16:43:58;101212.97;;;1.48;100.00
25722;BME280;13578;53.450;15.496;2023-02-28T16:47:01;101210.66;;;1.34;100.00
25722;BME280;13578;53.450;15.496;2023-02-28T16:50:12;101204.69;;;1.23;100.00
25722;BME280;13578;53.450;15.496;2023-02-28T16:53:13;101184.34;;;1.09;100.00
25722;BME280;13578;53.450;15.496;2023-02-28T16:56:22;101186.38;;;1.01;100.00
25722;BME280;13578;53.450;15.496;2023-02-28T16:59:25;101182.31;;;0.85;100.00
25722;BME280;13578;53.450;15.496;2023-02-28T17:02:27;101191.88;;;0.63;100.00
25722;BME280;13578;53.450;15.496;2023-02-28T17:05:33;101201.28;;;0.49;100.00
25722;BME280;13578;53.450;15.496;2023-02-28T17:08:36;101215.88;;;0.41;100.00
25722;BME280;13578;53.450;15.496;2023-02-28T17:11:36;101226.13;;;0.27;100.00
25722;BME280;13578;53.450;15.496;2023-02-28T17:14:37;101233.75;;;0.09;100.00
25722;BME280;13578;53.450;15.496;2023-02-28T17:17:38;101247.34;;;0.05;100.00
25722;BME280;13578;53.450;15.496;2023-02-28T17:20:39;101229.75;;;-0.13;100.00
25722;BME280;13578;53.450;15.496;2023-02-28T17:23:42;101255.03;;;-0.16;100.00
25722;BME280;13578;53.450;15.496;2023-02-28T17:26:43;101246.16;;;-0.21;100.00
25722;BME280;13578;53.450;15.496;2023-02-28T17:29:43;101242.44;;;-0.15;100.00